Kezdőlap
METAR-TAF:

METAR-TAF

Repülőterek :

Gaborone, Botswana

földrajzi szélesség: 24-13S, földrajzi hosszúság: 025-55E, magasság: 1005 m

Jelenlegi meteorológiai megfigyelések

A jelentés 41 perccel ezelõtt készült, 00:00 UTC
Északkeleti szél 9 kt
Hőmérséklet 16°C
Páratartalom 36%
Légköri nyomás 1030 hPa
Látótávolság 10 km, vagy több
felhőtlen 1500 m magasságban, és nincs gomolyfelhõ

METAR: FBSK 230000Z 04009KT CAVOK 16/01 Q1030 NOSIG

Idő: 02:41 (00:41 UTC)

Előrejelzés

A jelentés 3 órával és 41 perccel ezelõtt készült, 21:00 UTC
Az előrejelzés 23-én 00 óra UTC és 24-én 06 óra UTC között érvényes
Északkeleti szél 15 kt
Látótávolság 10 km, vagy több
felhőtlen 1500 m magasságban, és nincs gomolyfelhõ

TAF: FBSK 222100Z 2300/2406 04015KT CAVOK

Meteorológiai megfigyelések és előrejelzések több, mint 4000 repülőtéren (METAR és TAF jelentéseket).

A térképen piros és sárga pontok jelzik az elérhető meteorológiai állomásokat.

Mozgassa az egeret a pont fölött, hogy megjelenjen az állomás neve.

Azután kattintson az időjárási megfigyelések és előrejelzések megtekintéséhez.

A térkép megváltoztatása: kattintson a fekete keresztel jelölt zöld gombra ráközelítéshez, a vonallal jelölt zöld gombra távolításhoz, vagy a zöld nyilakra a szomszédos térképek eléréséhez.


METAR-TAF: